sensor_id;sensor_type;location;lat;lon;timestamp;pressure;altitude;pressure_sealevel;temperature;humidity
20023;BME280;10172;42.054;24.546;2023-07-02T00:00:26;97366.16;;;18.24;100.00
20023;BME280;10172;42.054;24.546;2023-07-02T00:02:51;97374.75;;;18.66;100.00
20023;BME280;10172;42.054;24.546;2023-07-02T00:05:17;97372.13;;;19.34;100.00
20023;BME280;10172;42.054;24.546;2023-07-02T00:07:43;97379.91;;;19.06;100.00
20023;BME280;10172;42.054;24.546;2023-07-02T00:10:09;97396.78;;;19.00;100.00
20023;BME280;10172;42.054;24.546;2023-07-02T00:12:36;97381.84;;;18.67;100.00
20023;BME280;10172;42.054;24.546;2023-07-02T00:15:02;97386.81;;;18.78;100.00
20023;BME280;10172;42.054;24.546;2023-07-02T00:17:28;97382.09;;;18.80;100.00
20023;BME280;10172;42.054;24.546;2023-07-02T00:19:54;97372.63;;;18.84;100.00
20023;BME280;10172;42.054;24.546;2023-07-02T00:22:20;97364.31;;;19.25;100.00
20023;BME280;10172;42.054;24.546;2023-07-02T00:24:45;97371.13;;;19.35;100.00
20023;BME280;10172;42.054;24.546;2023-07-02T00:27:11;97368.72;;;18.64;100.00
20023;BME280;10172;42.054;24.546;2023-07-02T00:29:36;97365.00;;;18.65;100.00
20023;BME280;10172;42.054;24.546;2023-07-02T00:32:02;97366.50;;;19.44;100.00
20023;BME280;10172;42.054;24.546;2023-07-02T00:34:28;97369.06;;;19.15;100.00
20023;BME280;10172;42.054;24.546;2023-07-02T00:36:53;97361.53;;;19.33;100.00
20023;BME280;10172;42.054;24.546;2023-07-02T00:39:19;97350.75;;;19.55;100.00
20023;BME280;10172;42.054;24.546;2023-07-02T00:41:44;97350.28;;;19.29;100.00
20023;BME280;10172;42.054;24.546;2023-07-02T00:44:13;97359.34;;;18.44;100.00
20023;BME280;10172;42.054;24.546;2023-07-02T00:46:39;97364.66;;;19.22;100.00
20023;BME280;10172;42.054;24.546;2023-07-02T00:49:04;97371.13;;;19.35;100.00
20023;BME280;10172;42.054;24.546;2023-07-02T00:51:30;97366.06;;;19.40;100.00
20023;BME280;10172;42.054;24.546;2023-07-02T00:53:57;97365.19;;;18.94;100.00
20023;BME280;10172;42.054;24.546;2023-07-02T00:56:24;97354.78;;;19.59;100.00
20023;BME280;10172;42.054;24.546;2023-07-02T00:58:51;97358.56;;;20.17;100.00
20023;BME280;10172;42.054;24.546;2023-07-02T01:01:22;97361.50;;;18.87;100.00
20023;BME280;10172;42.054;24.546;2023-07-02T01:03:56;97363.97;;;18.66;100.00
20023;BME280;10172;42.054;24.546;2023-07-02T01:06:29;97354.09;;;19.57;100.00
20023;BME280;10172;42.054;24.546;2023-07-02T01:08:56;97353.19;;;20.32;100.00
20023;BME280;10172;42.054;24.546;2023-07-02T01:11:27;97361.97;;;20.84;100.00
20023;BME280;10172;42.054;24.546;2023-07-02T01:13:55;97351.06;;;20.27;100.00
20023;BME280;10172;42.054;24.546;2023-07-02T01:16:22;97350.75;;;20.07;100.00
20023;BME280;10172;42.054;24.546;2023-07-02T01:18:49;97345.59;;;19.83;100.00
20023;BME280;10172;42.054;24.546;2023-07-02T01:21:16;97342.97;;;19.15;100.00
20023;BME280;10172;42.054;24.546;2023-07-02T01:23:42;97347.25;;;18.40;100.00
20023;BME280;10172;42.054;24.546;2023-07-02T01:26:08;97337.88;;;18.28;100.00
20023;BME280;10172;42.054;24.546;2023-07-02T01:28:35;97336.72;;;18.14;100.00
20023;BME280;10172;42.054;24.546;2023-07-02T01:31:03;97328.81;;;18.21;100.00
20023;BME280;10172;42.054;24.546;2023-07-02T01:33:28;97340.69;;;18.42;100.00
20023;BME280;10172;42.054;24.546;2023-07-02T01:35:54;97345.78;;;18.68;100.00
20023;BME280;10172;42.054;24.546;2023-07-02T01:38:19;97347.41;;;19.08;100.00
20023;BME280;10172;42.054;24.546;2023-07-02T01:40:45;97334.16;;;19.21;100.00
20023;BME280;10172;42.054;24.546;2023-07-02T01:43:10;97323.66;;;19.26;100.00
20023;BME280;10172;42.054;24.546;2023-07-02T01:45:37;97322.59;;;19.13;100.00
20023;BME280;10172;42.054;24.546;2023-07-02T01:48:03;97323.78;;;19.33;100.00
20023;BME280;10172;42.054;24.546;2023-07-02T01:50:28;97323.84;;;19.02;100.00
20023;BME280;10172;42.054;24.546;2023-07-02T01:52:54;97322.34;;;18.77;100.00
20023;BME280;10172;42.054;24.546;2023-07-02T01:55:19;97324.41;;;18.97;100.00
20023;BME280;10172;42.054;24.546;2023-07-02T01:57:44;97306.28;;;19.29;100.00
20023;BME280;10172;42.054;24.546;2023-07-02T02:00:10;97301.56;;;19.68;100.00
20023;BME280;10172;42.054;24.546;2023-07-02T02:02:36;97303.66;;;19.21;100.00
20023;BME280;10172;42.054;24.546;2023-07-02T02:05:02;97301.81;;;19.21;100.00
20023;BME280;10172;42.054;24.546;2023-07-02T02:07:27;97306.91;;;18.93;100.00
20023;BME280;10172;42.054;24.546;2023-07-02T02:09:53;97298.75;;;19.01;100.00
20023;BME280;10172;42.054;24.546;2023-07-02T02:12:18;97297.00;;;19.31;100.00
20023;BME280;10172;42.054;24.546;2023-07-02T02:14:43;97290.84;;;19.60;100.00
20023;BME280;10172;42.054;24.546;2023-07-02T02:17:09;97304.28;;;19.08;100.00
20023;BME280;10172;42.054;24.546;2023-07-02T02:19:34;97309.75;;;18.69;100.00
20023;BME280;10172;42.054;24.546;2023-07-02T02:22:00;97315.63;;;18.34;100.00
20023;BME280;10172;42.054;24.546;2023-07-02T02:24:25;97310.91;;;18.75;100.00
20023;BME280;10172;42.054;24.546;2023-07-02T02:26:51;97318.78;;;19.67;100.00
20023;BME280;10172;42.054;24.546;2023-07-02T02:29:16;97317.19;;;18.28;100.00
20023;BME280;10172;42.054;24.546;2023-07-02T02:31:43;97318.00;;;18.29;100.00
20023;BME280;10172;42.054;24.546;2023-07-02T02:34:08;97324.41;;;18.28;100.00
20023;BME280;10172;42.054;24.546;2023-07-02T02:36:34;97329.91;;;18.42;100.00
20023;BME280;10172;42.054;24.546;2023-07-02T02:38:59;97321.50;;;18.37;100.00
20023;BME280;10172;42.054;24.546;2023-07-02T02:41:25;97323.84;;;18.48;100.00
20023;BME280;10172;42.054;24.546;2023-07-02T02:43:50;97323.66;;;18.50;100.00
20023;BME280;10172;42.054;24.546;2023-07-02T02:46:20;97333.47;;;18.35;100.00
20023;BME280;10172;42.054;24.546;2023-07-02T02:48:50;97347.66;;;18.21;100.00
20023;BME280;10172;42.054;24.546;2023-07-02T02:51:16;97356.16;;;17.93;100.00
20023;BME280;10172;42.054;24.546;2023-07-02T02:53:42;97352.41;;;18.11;100.00
20023;BME280;10172;42.054;24.546;2023-07-02T02:56:07;97350.34;;;18.21;100.00
20023;BME280;10172;42.054;24.546;2023-07-02T02:58:33;97359.78;;;18.64;100.00
20023;BME280;10172;42.054;24.546;2023-07-02T03:00:59;97372.56;;;18.92;100.00
20023;BME280;10172;42.054;24.546;2023-07-02T03:03:24;97368.97;;;19.53;100.00
20023;BME280;10172;42.054;24.546;2023-07-02T03:05:52;97373.88;;;18.27;100.00
20023;BME280;10172;42.054;24.546;2023-07-02T03:08:18;97373.59;;;18.14;100.00
20023;BME280;10172;42.054;24.546;2023-07-02T03:10:43;97381.91;;;18.51;100.00
20023;BME280;10172;42.054;24.546;2023-07-02T03:13:09;97375.94;;;18.64;100.00
20023;BME280;10172;42.054;24.546;2023-07-02T03:15:35;97399.25;;;18.79;100.00
20023;BME280;10172;42.054;24.546;2023-07-02T03:18:00;97402.06;;;18.47;100.00
20023;BME280;10172;42.054;24.546;2023-07-02T03:20:25;97415.44;;;18.79;100.00
20023;BME280;10172;42.054;24.546;2023-07-02T03:22:51;97418.31;;;18.78;100.00
20023;BME280;10172;42.054;24.546;2023-07-02T03:25:17;97419.75;;;19.50;100.00
20023;BME280;10172;42.054;24.546;2023-07-02T03:27:42;97418.22;;;19.25;100.00
20023;BME280;10172;42.054;24.546;2023-07-02T03:30:08;97419.19;;;19.32;100.00
20023;BME280;10172;42.054;24.546;2023-07-02T03:32:33;97411.88;;;19.63;100.00
20023;BME280;10172;42.054;24.546;2023-07-02T03:34:59;97417.06;;;20.39;100.00
20023;BME280;10172;42.054;24.546;2023-07-02T03:37:24;97425.75;;;19.97;100.00
20023;BME280;10172;42.054;24.546;2023-07-02T03:39:50;97415.38;;;19.49;100.00
20023;BME280;10172;42.054;24.546;2023-07-02T03:42:16;97400.56;;;19.67;100.00
20023;BME280;10172;42.054;24.546;2023-07-02T03:44:41;97416.19;;;19.72;100.00
20023;BME280;10172;42.054;24.546;2023-07-02T03:47:07;97407.25;;;18.95;100.00
20023;BME280;10172;42.054;24.546;2023-07-02T03:49:33;97414.19;;;18.59;100.00
20023;BME280;10172;42.054;24.546;2023-07-02T03:51:59;97413.09;;;18.29;100.00
20023;BME280;10172;42.054;24.546;2023-07-02T03:54:24;97397.38;;;18.57;100.00
20023;BME280;10172;42.054;24.546;2023-07-02T03:56:50;97425.91;;;18.74;100.00
20023;BME280;10172;42.054;24.546;2023-07-02T03:59:15;97426.53;;;19.15;100.00
20023;BME280;10172;42.054;24.546;2023-07-02T04:01:41;97415.13;;;19.81;100.00
20023;BME280;10172;42.054;24.546;2023-07-02T04:04:06;97411.75;;;20.31;100.00
20023;BME280;10172;42.054;24.546;2023-07-02T04:06:32;97428.31;;;19.76;100.00
20023;BME280;10172;42.054;24.546;2023-07-02T04:08:59;97426.47;;;20.58;100.00
20023;BME280;10172;42.054;24.546;2023-07-02T04:11:25;97419.75;;;20.68;100.00
20023;BME280;10172;42.054;24.546;2023-07-02T04:13:50;97427.50;;;20.42;100.00
20023;BME280;10172;42.054;24.546;2023-07-02T04:16:16;97424.16;;;20.84;100.00
20023;BME280;10172;42.054;24.546;2023-07-02T04:18:41;97415.31;;;20.61;100.00
20023;BME280;10172;42.054;24.546;2023-07-02T04:21:07;97408.78;;;20.26;100.00
20023;BME280;10172;42.054;24.546;2023-07-02T04:23:32;97417.09;;;20.54;100.00
20023;BME280;10172;42.054;24.546;2023-07-02T04:25:57;97409.38;;;21.01;100.00
20023;BME280;10172;42.054;24.546;2023-07-02T04:28:23;97402.38;;;21.21;100.00
20023;BME280;10172;42.054;24.546;2023-07-02T04:30:48;97410.34;;;21.08;100.00
20023;BME280;10172;42.054;24.546;2023-07-02T04:33:16;97411.38;;;20.78;100.00
20023;BME280;10172;42.054;24.546;2023-07-02T04:35:42;97407.75;;;20.42;100.00
20023;BME280;10172;42.054;24.546;2023-07-02T04:38:08;97409.03;;;20.16;100.00
20023;BME280;10172;42.054;24.546;2023-07-02T04:40:33;97414.28;;;20.47;100.00
20023;BME280;10172;42.054;24.546;2023-07-02T04:42:59;97428.06;;;20.81;100.00
20023;BME280;10172;42.054;24.546;2023-07-02T04:45:25;97416.59;;;20.79;100.00
20023;BME280;10172;42.054;24.546;2023-07-02T04:47:51;97406.72;;;20.72;100.00
20023;BME280;10172;42.054;24.546;2023-07-02T04:50:18;97418.53;;;20.71;100.00
20023;BME280;10172;42.054;24.546;2023-07-02T04:52:44;97406.69;;;20.13;100.00
20023;BME280;10172;42.054;24.546;2023-07-02T04:55:09;97411.63;;;20.10;100.00
20023;BME280;10172;42.054;24.546;2023-07-02T04:57:35;97418.25;;;20.22;100.00
20023;BME280;10172;42.054;24.546;2023-07-02T05:00:01;97420.34;;;20.78;100.00
20023;BME280;10172;42.054;24.546;2023-07-02T05:02:29;97435.13;;;20.97;100.00
20023;BME280;10172;42.054;24.546;2023-07-02T05:04:54;97450.25;;;20.48;100.00
20023;BME280;10172;42.054;24.546;2023-07-02T05:07:19;97438.97;;;20.30;100.00
20023;BME280;10172;42.054;24.546;2023-07-02T05:09:45;97446.50;;;21.07;100.00
20023;BME280;10172;42.054;24.546;2023-07-02T05:12:10;97449.22;;;21.07;100.00
20023;BME280;10172;42.054;24.546;2023-07-02T05:14:36;97450.31;;;20.98;100.00
20023;BME280;10172;42.054;24.546;2023-07-02T05:17:01;97456.47;;;20.77;100.00
20023;BME280;10172;42.054;24.546;2023-07-02T05:19:27;97456.09;;;21.45;100.00
20023;BME280;10172;42.054;24.546;2023-07-02T05:21:52;97478.63;;;21.88;100.00
20023;BME280;10172;42.054;24.546;2023-07-02T05:24:18;97504.91;;;21.73;100.00
20023;BME280;10172;42.054;24.546;2023-07-02T05:26:43;97503.84;;;22.10;100.00
20023;BME280;10172;42.054;24.546;2023-07-02T05:29:09;97507.25;;;22.68;100.00
20023;BME280;10172;42.054;24.546;2023-07-02T05:31:35;97516.72;;;22.78;100.00
20023;BME280;10172;42.054;24.546;2023-07-02T05:34:01;97520.44;;;23.11;100.00
20023;BME280;10172;42.054;24.546;2023-07-02T05:36:26;97510.53;;;22.91;100.00
20023;BME280;10172;42.054;24.546;2023-07-02T05:38:51;97476.09;;;22.29;100.00
20023;BME280;10172;42.054;24.546;2023-07-02T05:41:20;97480.81;;;22.48;100.00
20023;BME280;10172;42.054;24.546;2023-07-02T05:43:46;97504.53;;;22.68;100.00
20023;BME280;10172;42.054;24.546;2023-07-02T05:46:12;97511.69;;;22.26;100.00
20023;BME280;10172;42.054;24.546;2023-07-02T05:48:41;97506.78;;;22.15;100.00
20023;BME280;10172;42.054;24.546;2023-07-02T05:51:07;97506.03;;;21.43;100.00
20023;BME280;10172;42.054;24.546;2023-07-02T05:53:32;97496.81;;;22.16;100.00
20023;BME280;10172;42.054;24.546;2023-07-02T05:55:58;97497.72;;;22.78;100.00
20023;BME280;10172;42.054;24.546;2023-07-02T05:58:23;97495.78;;;23.00;100.00
20023;BME280;10172;42.054;24.546;2023-07-02T06:00:49;97503.84;;;22.87;100.00
20023;BME280;10172;42.054;24.546;2023-07-02T06:03:16;97487.06;;;23.17;100.00
20023;BME280;10172;42.054;24.546;2023-07-02T06:05:49;97480.91;;;22.61;100.00
20023;BME280;10172;42.054;24.546;2023-07-02T06:08:18;97472.19;;;22.38;100.00
20023;BME280;10172;42.054;24.546;2023-07-02T06:10:47;97466.09;;;22.92;100.00
20023;BME280;10172;42.054;24.546;2023-07-02T06:13:13;97465.34;;;22.42;100.00
20023;BME280;10172;42.054;24.546;2023-07-02T06:15:39;97456.16;;;22.71;100.00
20023;BME280;10172;42.054;24.546;2023-07-02T06:18:04;97448.69;;;23.14;100.00
20023;BME280;10172;42.054;24.546;2023-07-02T06:20:30;97455.31;;;23.59;100.00
20023;BME280;10172;42.054;24.546;2023-07-02T06:22:55;97459.81;;;24.12;100.00
20023;BME280;10172;42.054;24.546;2023-07-02T06:25:21;97466.06;;;24.65;100.00
20023;BME280;10172;42.054;24.546;2023-07-02T06:27:47;97474.59;;;24.88;100.00
20023;BME280;10172;42.054;24.546;2023-07-02T06:30:12;97485.09;;;25.36;100.00
20023;BME280;10172;42.054;24.546;2023-07-02T06:32:38;97473.97;;;25.44;100.00
20023;BME280;10172;42.054;24.546;2023-07-02T06:35:04;97481.59;;;25.29;100.00
20023;BME280;10172;42.054;24.546;2023-07-02T06:37:32;97468.69;;;25.05;100.00
20023;BME280;10172;42.054;24.546;2023-07-02T06:39:57;97465.63;;;25.39;100.00
20023;BME280;10172;42.054;24.546;2023-07-02T06:42:24;97460.56;;;25.87;100.00
20023;BME280;10172;42.054;24.546;2023-07-02T06:44:49;97470.22;;;25.83;100.00
20023;BME280;10172;42.054;24.546;2023-07-02T06:47:14;97471.84;;;25.90;100.00
20023;BME280;10172;42.054;24.546;2023-07-02T06:49:40;97476.75;;;26.06;100.00
20023;BME280;10172;42.054;24.546;2023-07-02T06:52:06;97472.56;;;26.10;100.00
20023;BME280;10172;42.054;24.546;2023-07-02T06:54:31;97484.13;;;26.37;100.00
20023;BME280;10172;42.054;24.546;2023-07-02T06:56:56;97482.63;;;25.79;100.00
20023;BME280;10172;42.054;24.546;2023-07-02T06:59:22;97476.31;;;26.09;100.00
20023;BME280;10172;42.054;24.546;2023-07-02T07:01:49;97473.97;;;26.44;100.00
20023;BME280;10172;42.054;24.546;2023-07-02T07:04:15;97473.44;;;26.36;100.00
20023;BME280;10172;42.054;24.546;2023-07-02T07:06:41;97477.13;;;26.66;100.00
20023;BME280;10172;42.054;24.546;2023-07-02T07:09:08;97466.78;;;26.74;100.00
20023;BME280;10172;42.054;24.546;2023-07-02T07:11:34;97470.31;;;27.18;100.00
20023;BME280;10172;42.054;24.546;2023-07-02T07:14:00;97478.50;;;27.00;94.96
20023;BME280;10172;42.054;24.546;2023-07-02T07:16:26;97471.59;;;26.97;99.39
20023;BME280;10172;42.054;24.546;2023-07-02T07:18:51;97460.00;;;26.59;97.99
20023;BME280;10172;42.054;24.546;2023-07-02T07:21:17;97467.44;;;26.70;97.63
20023;BME280;10172;42.054;24.546;2023-07-02T07:23:42;97465.13;;;26.73;100.00
20023;BME280;10172;42.054;24.546;2023-07-02T07:26:07;97466.38;;;27.14;98.91
20023;BME280;10172;42.054;24.546;2023-07-02T07:28:33;97473.19;;;27.23;96.33
20023;BME280;10172;42.054;24.546;2023-07-02T07:30:58;97475.00;;;27.47;91.24
20023;BME280;10172;42.054;24.546;2023-07-02T07:33:24;97469.66;;;27.41;91.78
20023;BME280;10172;42.054;24.546;2023-07-02T07:35:49;97470.72;;;27.69;91.83
20023;BME280;10172;42.054;24.546;2023-07-02T07:38:15;97462.34;;;28.12;93.92
20023;BME280;10172;42.054;24.546;2023-07-02T07:40:44;97465.25;;;27.99;87.45
20023;BME280;10172;42.054;24.546;2023-07-02T07:43:10;97452.38;;;28.18;88.35
20023;BME280;10172;42.054;24.546;2023-07-02T07:45:36;97446.13;;;27.99;93.50
20023;BME280;10172;42.054;24.546;2023-07-02T07:48:03;97441.56;;;27.93;93.45
20023;BME280;10172;42.054;24.546;2023-07-02T07:50:29;97441.78;;;28.10;93.37
20023;BME280;10172;42.054;24.546;2023-07-02T07:52:54;97449.75;;;28.11;94.26
20023;BME280;10172;42.054;24.546;2023-07-02T07:55:19;97439.47;;;27.95;89.64
20023;BME280;10172;42.054;24.546;2023-07-02T07:57:45;97439.09;;;26.71;97.26
20023;BME280;10172;42.054;24.546;2023-07-02T08:00:11;97443.53;;;26.90;98.26
20023;BME280;10172;42.054;24.546;2023-07-02T08:02:37;97446.75;;;26.87;98.60
20023;BME280;10172;42.054;24.546;2023-07-02T08:05:03;97452.84;;;27.37;94.80
20023;BME280;10172;42.054;24.546;2023-07-02T08:07:30;97443.59;;;27.38;92.54
20023;BME280;10172;42.054;24.546;2023-07-02T08:09:56;97450.66;;;27.09;95.88
20023;BME280;10172;42.054;24.546;2023-07-02T08:12:21;97441.50;;;27.70;89.25
20023;BME280;10172;42.054;24.546;2023-07-02T08:14:46;97447.38;;;27.55;92.96
20023;BME280;10172;42.054;24.546;2023-07-02T08:17:12;97442.31;;;28.00;89.21
20023;BME280;10172;42.054;24.546;2023-07-02T08:19:38;97448.84;;;28.40;88.76
20023;BME280;10172;42.054;24.546;2023-07-02T08:22:03;97458.94;;;28.40;85.47
20023;BME280;10172;42.054;24.546;2023-07-02T08:24:29;97442.09;;;27.72;84.88
20023;BME280;10172;42.054;24.546;2023-07-02T08:26:56;97447.34;;;28.68;84.35
20023;BME280;10172;42.054;24.546;2023-07-02T08:29:21;97443.56;;;29.20;79.96
20023;BME280;10172;42.054;24.546;2023-07-02T08:31:47;97446.19;;;29.15;75.46
20023;BME280;10172;42.054;24.546;2023-07-02T08:34:12;97434.22;;;28.58;78.47
20023;BME280;10172;42.054;24.546;2023-07-02T08:36:38;97432.88;;;29.07;76.46
20023;BME280;10172;42.054;24.546;2023-07-02T08:39:03;97436.94;;;28.93;78.57
20023;BME280;10172;42.054;24.546;2023-07-02T08:41:29;97436.91;;;29.16;76.22
20023;BME280;10172;42.054;24.546;2023-07-02T08:43:57;97428.88;;;28.86;79.76
20023;BME280;10172;42.054;24.546;2023-07-02T08:46:24;97433.94;;;29.18;78.99
20023;BME280;10172;42.054;24.546;2023-07-02T08:48:50;97444.22;;;29.22;77.91
20023;BME280;10172;42.054;24.546;2023-07-02T08:51:16;97446.13;;;28.75;80.31
20023;BME280;10172;42.054;24.546;2023-07-02T08:53:41;97440.00;;;29.31;79.02
20023;BME280;10172;42.054;24.546;2023-07-02T08:56:07;97449.06;;;28.51;81.25
20023;BME280;10172;42.054;24.546;2023-07-02T08:58:32;97446.06;;;28.17;82.39
20023;BME280;10172;42.054;24.546;2023-07-02T09:01:11;97440.78;;;28.69;82.33
20023;BME280;10172;42.054;24.546;2023-07-02T09:03:38;97444.78;;;29.01;82.30
20023;BME280;10172;42.054;24.546;2023-07-02T09:06:04;97433.69;;;29.31;80.19
20023;BME280;10172;42.054;24.546;2023-07-02T09:08:30;97447.69;;;28.83;76.29
20023;BME280;10172;42.054;24.546;2023-07-02T09:11:25;97449.09;;;27.02;84.19
20023;BME280;10172;42.054;24.546;2023-07-02T09:13:52;97434.75;;;26.45;86.68
20023;BME280;10172;42.054;24.546;2023-07-02T09:16:26;97440.25;;;27.36;85.38
20023;BME280;10172;42.054;24.546;2023-07-02T09:19:03;97429.53;;;28.12;83.83
20023;BME280;10172;42.054;24.546;2023-07-02T09:26:42;97437.03;;;29.33;73.93
20023;BME280;10172;42.054;24.546;2023-07-02T09:29:07;97431.00;;;29.47;75.61
20023;BME280;10172;42.054;24.546;2023-07-02T09:31:43;97429.66;;;29.61;77.84
20023;BME280;10172;42.054;24.546;2023-07-02T09:34:08;97431.03;;;29.76;77.99
20023;BME280;10172;42.054;24.546;2023-07-02T09:36:34;97434.25;;;30.01;72.79
20023;BME280;10172;42.054;24.546;2023-07-02T09:39:02;97436.50;;;29.76;72.09
20023;BME280;10172;42.054;24.546;2023-07-02T09:41:29;97428.72;;;29.04;76.34
20023;BME280;10172;42.054;24.546;2023-07-02T09:43:55;97435.75;;;28.19;81.55
20023;BME280;10172;42.054;24.546;2023-07-02T09:46:21;97433.09;;;28.13;82.79
20023;BME280;10172;42.054;24.546;2023-07-02T09:48:47;97427.44;;;27.55;85.26
20023;BME280;10172;42.054;24.546;2023-07-02T09:51:13;97431.81;;;25.91;94.70
20023;BME280;10172;42.054;24.546;2023-07-02T09:53:39;97431.03;;;25.52;100.00
20023;BME280;10172;42.054;24.546;2023-07-02T09:56:07;97434.41;;;25.48;100.00
20023;BME280;10172;42.054;24.546;2023-07-02T09:58:33;97437.91;;;25.04;100.00
20023;BME280;10172;42.054;24.546;2023-07-02T10:00:58;97437.66;;;24.22;100.00
20023;BME280;10172;42.054;24.546;2023-07-02T10:03:31;97443.44;;;24.78;100.00
20023;BME280;10172;42.054;24.546;2023-07-02T10:06:06;97459.91;;;25.03;100.00
20023;BME280;10172;42.054;24.546;2023-07-02T10:08:32;97465.22;;;24.45;100.00
20023;BME280;10172;42.054;24.546;2023-07-02T10:11:11;97459.53;;;24.79;100.00
20023;BME280;10172;42.054;24.546;2023-07-02T10:13:38;97457.69;;;25.31;100.00
20023;BME280;10172;42.054;24.546;2023-07-02T10:16:04;97458.22;;;25.59;100.00
20023;BME280;10172;42.054;24.546;2023-07-02T10:18:30;97457.63;;;24.93;100.00
20023;BME280;10172;42.054;24.546;2023-07-02T10:20:55;97449.34;;;24.22;100.00
20023;BME280;10172;42.054;24.546;2023-07-02T10:23:33;97459.16;;;24.50;100.00
20023;BME280;10172;42.054;24.546;2023-07-02T10:26:09;97453.84;;;23.56;100.00
20023;BME280;10172;42.054;24.546;2023-07-02T10:28:35;97444.13;;;23.21;100.00
20023;BME280;10172;42.054;24.546;2023-07-02T10:31:00;97435.44;;;23.45;100.00
20023;BME280;10172;42.054;24.546;2023-07-02T10:33:26;97440.16;;;24.23;100.00
20023;BME280;10172;42.054;24.546;2023-07-02T10:35:51;97442.59;;;23.66;100.00
20023;BME280;10172;42.054;24.546;2023-07-02T10:38:20;97435.50;;;23.85;100.00
20023;BME280;10172;42.054;24.546;2023-07-02T10:40:46;97432.63;;;24.45;100.00
20023;BME280;10172;42.054;24.546;2023-07-02T10:43:12;97439.66;;;24.85;100.00
20023;BME280;10172;42.054;24.546;2023-07-02T10:45:37;97429.19;;;24.89;100.00
20023;BME280;10172;42.054;24.546;2023-07-02T10:48:04;97421.53;;;24.07;100.00
20023;BME280;10172;42.054;24.546;2023-07-02T10:50:33;97422.38;;;24.34;100.00
20023;BME280;10172;42.054;24.546;2023-07-02T10:52:59;97421.53;;;24.01;100.00
20023;BME280;10172;42.054;24.546;2023-07-02T10:55:25;97416.97;;;24.27;100.00
20023;BME280;10172;42.054;24.546;2023-07-02T10:58:06;97410.97;;;24.76;100.00
20023;BME280;10172;42.054;24.546;2023-07-02T11:00:32;97413.09;;;24.74;100.00
20023;BME280;10172;42.054;24.546;2023-07-02T11:02:58;97405.78;;;24.75;100.00
20023;BME280;10172;42.054;24.546;2023-07-02T11:05:24;97412.84;;;24.95;100.00
20023;BME280;10172;42.054;24.546;2023-07-02T11:07:49;97418.63;;;25.19;100.00
20023;BME280;10172;42.054;24.546;2023-07-02T11:10:22;97406.91;;;25.12;100.00
20023;BME280;10172;42.054;24.546;2023-07-02T11:12:48;97412.25;;;25.38;100.00
20023;BME280;10172;42.054;24.546;2023-07-02T11:15:15;97424.38;;;24.91;100.00
20023;BME280;10172;42.054;24.546;2023-07-02T11:17:41;97420.81;;;24.90;100.00
20023;BME280;10172;42.054;24.546;2023-07-02T11:20:08;97412.03;;;24.95;100.00
20023;BME280;10172;42.054;24.546;2023-07-02T11:22:35;97410.19;;;25.27;100.00
20023;BME280;10172;42.054;24.546;2023-07-02T11:25:17;97422.69;;;25.41;100.00
20023;BME280;10172;42.054;24.546;2023-07-02T11:27:45;97421.28;;;23.69;100.00
20023;BME280;10172;42.054;24.546;2023-07-02T11:30:11;97432.84;;;23.31;100.00
20023;BME280;10172;42.054;24.546;2023-07-02T11:32:47;97442.78;;;22.97;100.00
20023;BME280;10172;42.054;24.546;2023-07-02T11:35:16;97432.16;;;23.69;100.00
20023;BME280;10172;42.054;24.546;2023-07-02T11:37:43;97422.78;;;23.98;100.00
20023;BME280;10172;42.054;24.546;2023-07-02T11:40:09;97419.88;;;23.87;100.00
20023;BME280;10172;42.054;24.546;2023-07-02T11:42:34;97415.91;;;23.89;100.00
20023;BME280;10172;42.054;24.546;2023-07-02T11:45:00;97411.34;;;23.22;100.00
20023;BME280;10172;42.054;24.546;2023-07-02T11:47:25;97409.63;;;23.75;100.00
20023;BME280;10172;42.054;24.546;2023-07-02T11:49:53;97411.25;;;23.63;100.00
20023;BME280;10172;42.054;24.546;2023-07-02T11:52:20;97408.78;;;23.82;100.00
20023;BME280;10172;42.054;24.546;2023-07-02T11:54:46;97400.84;;;23.73;100.00
20023;BME280;10172;42.054;24.546;2023-07-02T11:57:11;97404.59;;;22.99;100.00
20023;BME280;10172;42.054;24.546;2023-07-02T11:59:36;97403.34;;;23.62;100.00
20023;BME280;10172;42.054;24.546;2023-07-02T12:02:02;97396.47;;;24.12;100.00
20023;BME280;10172;42.054;24.546;2023-07-02T12:04:28;97394.59;;;24.19;100.00
20023;BME280;10172;42.054;24.546;2023-07-02T12:06:53;97401.59;;;24.72;100.00
20023;BME280;10172;42.054;24.546;2023-07-02T12:09:19;97390.41;;;25.51;100.00
20023;BME280;10172;42.054;24.546;2023-07-02T12:11:44;97380.72;;;26.11;100.00
20023;BME280;10172;42.054;24.546;2023-07-02T12:14:11;97383.13;;;26.26;100.00
20023;BME280;10172;42.054;24.546;2023-07-02T12:16:37;97387.22;;;26.59;100.00
20023;BME280;10172;42.054;24.546;2023-07-02T12:19:02;97384.09;;;26.56;100.00
20023;BME280;10172;42.054;24.546;2023-07-02T12:21:27;97390.06;;;26.46;100.00
20023;BME280;10172;42.054;24.546;2023-07-02T12:23:53;97395.69;;;26.69;100.00
20023;BME280;10172;42.054;24.546;2023-07-02T12:26:18;97401.91;;;27.13;100.00
20023;BME280;10172;42.054;24.546;2023-07-02T12:28:44;97395.63;;;27.12;100.00
20023;BME280;10172;42.054;24.546;2023-07-02T12:31:09;97404.22;;;26.55;100.00
20023;BME280;10172;42.054;24.546;2023-07-02T12:33:35;97394.13;;;26.80;100.00
20023;BME280;10172;42.054;24.546;2023-07-02T12:36:01;97394.28;;;25.68;100.00
20023;BME280;10172;42.054;24.546;2023-07-02T12:38:28;97388.50;;;25.14;100.00
20023;BME280;10172;42.054;24.546;2023-07-02T12:40:53;97391.50;;;25.37;100.00
20023;BME280;10172;42.054;24.546;2023-07-02T12:43:19;97385.03;;;24.93;100.00